Subpeak Weather

  • Time Avg. Air Temp Dew Point Avg. Rel Humidity Avg. 2 Min Wind Speed Max Gust Velocity MGV Time MGV Direction Avg. Spot Wind Velocity
    2017-03-27 01:35:00-7° C-8° C92%19 km/h23 km/h01:35:10SE19 km/h
    00:35:00-7° C-8° C92%13 km/h15 km/h00:33:10SE13 km/h
    23:35:00-7° C-8° C92%17 km/h20 km/h23:34:10SE17 km/h
    22:35:00-7° C-8° C92%21 km/h24 km/h22:35:10SE18 km/h
    21:35:00-7° C-8° C92%29 km/h34 km/h21:35:10SE26 km/h
    20:35:00-7° C-8° C92%32 km/h39 km/h20:35:10SE32 km/h
    19:35:00-7° C-9° C92%24 km/h34 km/h19:31:00SE21 km/h
    18:35:00-7° C-8° C92%18 km/h29 km/h18:33:10NE18 km/h
    17:35:00-7° C-8° C92%15 km/h16 km/h17:35:10SE14 km/h
    16:35:00-7° C-9° C91%23 km/h30 km/h16:34:10SE19 km/h
    15:35:00-8° C-9° C91%22 km/h37 km/h15:33:10SE27 km/h
    14:35:00-8° C-9° C91%23 km/h38 km/h14:33:10E27 km/h
    13:35:00-7° C-8° C92%28 km/h35 km/h13:34:10SE20 km/h
    12:35:00-8° C-9° C92%10 km/h28 km/h12:31:00S17 km/h
    11:35:00-6° C-6° C93%16 km/h25 km/h11:31:00SE19 km/h
    10:35:00-7° C-8° C92%20 km/h24 km/h10:33:10SE22 km/h
    09:35:00-9° C-10° C90%23 km/h33 km/h09:31:00SE23 km/h
    08:35:00-9° C-10° C90%13 km/h21 km/h08:35:10SE13 km/h
    07:35:00-10° C-11° C89%20 km/h23 km/h07:34:10SE17 km/h
    06:35:00-10° C-12° C89%15 km/h20 km/h06:33:10SE16 km/h
    05:35:00-10° C-12° C89%16 km/h18 km/h05:35:10S16 km/h
    04:35:00-10° C-12° C89%17 km/h19 km/h04:31:00S16 km/h
    03:35:00-10° C-12° C89%27 km/h29 km/h03:34:10S26 km/h
    02:35:00-10° C-12° C89%31 km/h34 km/h02:34:10S29 km/h
  • Time Avg. Air Temp Dew Point Avg. Rel Humidity Avg. 2 Min Wind Speed Max Gust Velocity MGV Time MGV Direction Avg. Spot Wind Velocity
    2017-03-27 01:35:00-7° C-8° C92%19 km/h23 km/h01:35:10SE19 km/h
    01:30:00-7° C-8° C92%17 km/h20 km/h01:30:10SE16 km/h
    01:25:00-7° C-8° C92%15 km/h20 km/h01:24:10SE15 km/h
    01:20:00-7° C-8° C92%16 km/h18 km/h01:18:10SE15 km/h
    01:15:00-7° C-8° C92%14 km/h17 km/h01:13:10SE14 km/h
    01:10:00-7° C-8° C92%12 km/h14 km/h01:10:10SE12 km/h
    01:05:00-7° C-8° C92%10 km/h12 km/h01:02:10SE10 km/h
    01:00:00-7° C-8° C92%11 km/h16 km/h00:57:10SE12 km/h
    00:55:00-7° C-8° C92%14 km/h16 km/h00:54:10SE12 km/h
    00:50:00-7° C-8° C92%12 km/h17 km/h00:46:00SE14 km/h
    00:45:00-7° C-8° C92%14 km/h18 km/h00:45:10SE14 km/h
    00:40:00-7° C-8° C92%13 km/h15 km/h00:40:10SE13 km/h
    00:35:00-7° C-8° C92%13 km/h15 km/h00:33:10SE13 km/h